Terminal Aerodrome Forecast
Issued by NWS Nashville, TN

Home | Current Version | Previous Version | Text Only | Print | Product List | Glossary On
Versions: 1 2 3 4 5 6 7 8 9 10 11 12 13 14 15 16 17 18 19 20 21 22 23 24 25 26
000
FTUS44 KOHX 021100
TAFBNA
TAF
KBNA 021138Z 0212/0312 33006KT P6SM BKN008 OVC015
     FM021600 01005KT P6SM OVC015
     FM021900 01007KT P6SM OVC025
     FM022200 01006KT P6SM OVC040
     FM030200 01003KT P6SM BKN100
     FM031000 01003KT 5SM BR SCT100=

USA.gov is the U.S. government's official web portal to all federal, state and local government web resources and services.